Marble Falls' Hourly Summary for Monday, March 13, 2017
Hour Temp
(f)
RH
(%)
Solar Rad.
(MJ/m2)
Rainfall
(in)
Wind
(mph)
3/13/2017 12:00 AM 48 100 0 0 5.16
3/13/2017 1:00 AM 47 100 0 0 4.62
3/13/2017 2:00 AM 47 100 0 0 3.36
3/13/2017 3:00 AM 48 100 0 0 2.25
3/13/2017 4:00 AM 48 100 0 0 2.25
3/13/2017 5:00 AM 48 100 0 0 2.23
3/13/2017 6:00 AM 48 100 0 0 2.23
3/13/2017 7:00 AM 48 100 0 0 1.26
3/13/2017 8:00 AM 49 100 0.06 0 2.19
3/13/2017 9:00 AM 48 100 0.1 0 4.4
3/13/2017 10:00 AM 49 100 0.5 0 4.4
3/13/2017 11:00 AM 51 100 0.92 0 3.04
3/13/2017 12:00 PM 56 100 1.59 0 6.69
3/13/2017 1:00 PM 60 69 1.59 0 6.69
3/13/2017 2:00 PM 64 51 1.57 0 8.32
3/13/2017 3:00 PM 64 47 1.72 0 8.54
3/13/2017 4:00 PM 66 47 1.72 0 9.25
3/13/2017 5:00 PM 67 39 1.54 0 9.25
3/13/2017 6:00 PM 67 34 1.54 0 8.67
3/13/2017 7:00 PM 67 33 0.81 0 7.67
3/13/2017 8:00 PM 66 42 0.16 0 4.05
3/13/2017 9:00 PM 61 48 0 0 0.67
3/13/2017 10:00 PM 58 56 0 0 1.49
3/13/2017 11:00 PM 55 56 0 0 1.94
Data Summary 55 75 13.82 0.00 4.61